createdAt,value
2023-05-03T00:00:31.357Z,100247.48
2023-05-03T00:02:58.351Z,100249.27
2023-05-03T00:05:26.513Z,100250.35
2023-05-03T00:07:53.460Z,100247.98
2023-05-03T00:10:20.736Z,100249.58
2023-05-03T00:12:47.772Z,100248.58
2023-05-03T00:15:14.759Z,100249.98
2023-05-03T00:17:41.778Z,100247.91
2023-05-03T00:20:09.746Z,100252.73
2023-05-03T00:22:36.968Z,100248.61
2023-05-03T00:25:04.977Z,100246.02
2023-05-03T00:27:34.301Z,100245.15
2023-05-03T00:30:01.709Z,100247.02
2023-05-03T00:32:29.088Z,100248.02
2023-05-03T00:34:56.861Z,100245.80
2023-05-03T00:37:24.492Z,100244.08
2023-05-03T00:39:52.222Z,100239.57
2023-05-03T00:42:19.451Z,100238.33
2023-05-03T00:44:46.423Z,100238.10
2023-05-03T00:47:13.527Z,100236.67
2023-05-03T00:49:41.400Z,100236.96
2023-05-03T00:52:09.333Z,100236.92
2023-05-03T00:54:36.522Z,100233.77
2023-05-03T00:57:04.724Z,100234.61
2023-05-03T00:59:32.906Z,100236.34
2023-05-03T01:02:00.265Z,100235.13
2023-05-03T01:04:28.304Z,100230.98
2023-05-03T01:07:17.478Z,100227.31
2023-05-03T01:10:01.105Z,100228.65
2023-05-03T01:12:47.581Z,100230.02
2023-05-03T01:15:18.399Z,100232.02
2023-05-03T01:17:57.669Z,100229.84
2023-05-03T01:20:28.449Z,100225.48
2023-05-03T01:22:59.143Z,100220.11
2023-05-03T01:25:29.233Z,100220.23
2023-05-03T01:27:56.214Z,100214.69
2023-05-03T01:30:25.169Z,100207.40
2023-05-03T01:33:18.535Z,100203.74
2023-05-03T01:36:02.624Z,100202.69
2023-05-03T01:38:31.356Z,100204.54
2023-05-03T01:41:02.722Z,100205.34
2023-05-03T01:43:31.652Z,100203.17
2023-05-03T01:45:59.227Z,100201.05
2023-05-03T01:48:26.268Z,100202.90
2023-05-03T01:50:53.265Z,100200.23
2023-05-03T01:53:20.444Z,100205.51
2023-05-03T01:55:47.381Z,100200.09
2023-05-03T01:58:14.359Z,100203.14
2023-05-03T02:00:41.420Z,100194.98
2023-05-03T02:03:08.541Z,100195.09
2023-05-03T02:05:36.267Z,100194.73
2023-05-03T02:08:03.742Z,100191.27
2023-05-03T02:10:30.962Z,100190.86
2023-05-03T02:12:58.313Z,100192.52
2023-05-03T02:15:25.444Z,100196.48
2023-05-03T02:17:54.341Z,100197.66
2023-05-03T02:20:21.651Z,100201.74
2023-05-03T02:22:48.620Z,100201.49
2023-05-03T02:25:15.772Z,100205.90
2023-05-03T02:27:42.753Z,100212.84
2023-05-03T02:30:09.812Z,100212.45
2023-05-03T02:32:39.731Z,100215.80
2023-05-03T02:35:07.456Z,100211.09
2023-05-03T02:37:35.249Z,100213.42
2023-05-03T02:40:06.067Z,100213.55
2023-05-03T02:42:33.348Z,100214.59
2023-05-03T02:45:01.298Z,100214.98
2023-05-03T02:47:32.865Z,100214.65
2023-05-03T02:50:00.236Z,100210.75
2023-05-03T02:52:27.635Z,100208.85
2023-05-03T02:54:54.776Z,100207.30
2023-05-03T02:57:22.303Z,100211.39
2023-05-03T02:59:49.432Z,100207.21
2023-05-03T03:02:16.537Z,100210.77
2023-05-03T03:04:43.553Z,100206.30
2023-05-03T03:07:10.590Z,100212.00
2023-05-03T03:09:37.640Z,100210.98
2023-05-03T03:12:05.825Z,100208.63
2023-05-03T03:14:33.210Z,100207.80
2023-05-03T03:17:01.213Z,100213.50
2023-05-03T03:19:28.731Z,100213.21
2023-05-03T03:21:55.748Z,100212.20
2023-05-03T03:24:25.343Z,100211.06
2023-05-03T03:26:53.159Z,100212.84
2023-05-03T03:29:20.570Z,100212.58
2023-05-03T03:31:47.821Z,100214.65
2023-05-03T03:34:16.651Z,100213.98
2023-05-03T03:36:43.735Z,100209.73
2023-05-03T03:39:11.008Z,100209.63
2023-05-03T03:41:38.198Z,100204.17
2023-05-03T03:44:05.477Z,100203.06
2023-05-03T03:46:32.886Z,100202.73
2023-05-03T03:49:00.249Z,100199.83
2023-05-03T03:51:27.558Z,100197.48
2023-05-03T03:53:54.680Z,100193.58
2023-05-03T03:56:22.507Z,100198.10
2023-05-03T03:58:50.062Z,100196.77
2023-05-03T04:01:17.150Z,100205.25
2023-05-03T04:03:50.280Z,100207.03
2023-05-03T04:06:17.776Z,100206.09
2023-05-03T04:08:44.960Z,100207.94
2023-05-03T04:11:12.639Z,100211.39
2023-05-03T04:13:43.560Z,100215.00
2023-05-03T04:16:11.073Z,100220.14
2023-05-03T04:18:38.236Z,100219.64
2023-05-03T04:21:06.104Z,100217.74
2023-05-03T04:23:33.439Z,100221.00
2023-05-03T04:26:02.535Z,100219.71
2023-05-03T04:28:32.867Z,100217.08
2023-05-03T04:31:00.358Z,100215.80
2023-05-03T04:33:30.040Z,100220.23
2023-05-03T04:36:00.493Z,100222.95
2023-05-03T04:38:28.438Z,100227.55
2023-05-03T04:40:57.255Z,100234.73
2023-05-03T04:43:24.586Z,100231.20
2023-05-03T04:45:54.827Z,100233.52
2023-05-03T04:48:24.391Z,100234.17
2023-05-03T04:50:52.621Z,100233.06
2023-05-03T04:53:20.449Z,100237.64
2023-05-03T04:55:52.758Z,100236.48
2023-05-03T04:58:20.099Z,100239.98
2023-05-03T05:00:47.563Z,100236.45
2023-05-03T05:03:18.913Z,100241.17
2023-05-03T05:05:46.527Z,100240.91
2023-05-03T05:08:14.237Z,100237.36
2023-05-03T05:10:45.397Z,100239.71
2023-05-03T05:13:15.469Z,100242.71
2023-05-03T05:15:42.531Z,100242.59
2023-05-03T05:18:10.556Z,100244.05
2023-05-03T05:20:38.752Z,100238.23
2023-05-03T05:23:06.875Z,100238.95
2023-05-03T05:25:34.020Z,100235.16
2023-05-03T05:28:01.720Z,100240.72
2023-05-03T05:30:29.167Z,100238.48
2023-05-03T05:32:56.425Z,100242.98
2023-05-03T05:35:23.594Z,100237.79
2023-05-03T05:37:51.122Z,100236.39
2023-05-03T05:40:19.220Z,100235.01
2023-05-03T05:42:50.654Z,100235.85
2023-05-03T05:45:18.324Z,100230.23
2023-05-03T05:47:45.853Z,100224.11
2023-05-03T05:50:18.267Z,100227.18
2023-05-03T05:52:53.306Z,100227.48
2023-05-03T05:55:21.329Z,100227.27
2023-05-03T05:57:49.584Z,100218.41
2023-05-03T06:00:17.680Z,100219.08
2023-05-03T06:02:45.307Z,100216.42
2023-05-03T06:05:16.430Z,100216.87
2023-05-03T06:07:43.464Z,100215.60
2023-05-03T06:10:10.699Z,100209.48
2023-05-03T06:12:39.997Z,100207.32
2023-05-03T06:15:13.262Z,100204.83
2023-05-03T06:17:40.670Z,100202.10
2023-05-03T06:20:11.987Z,100202.30
2023-05-03T06:22:40.245Z,100200.27
2023-05-03T06:25:08.307Z,100199.98
2023-05-03T06:27:38.550Z,100203.80
2023-05-03T06:30:07.135Z,100197.16
2023-05-03T06:32:34.303Z,100204.25
2023-05-03T06:35:02.321Z,100201.81
2023-05-03T06:37:29.808Z,100196.95
2023-05-03T06:39:57.249Z,100191.96
2023-05-03T06:42:24.482Z,100194.59
2023-05-03T06:45:04.071Z,100190.09
2023-05-03T06:47:31.210Z,100189.77
2023-05-03T06:49:58.308Z,100187.75
2023-05-03T06:52:25.224Z,100187.77
2023-05-03T06:54:54.258Z,100187.77
2023-05-03T06:57:22.590Z,100184.40
2023-05-03T06:59:49.673Z,100187.46
2023-05-03T07:02:18.122Z,100182.69
2023-05-03T07:04:45.080Z,100180.31
2023-05-03T07:07:12.033Z,100183.35
2023-05-03T07:09:43.273Z,100182.67
2023-05-03T07:12:11.165Z,100185.05
2023-05-03T07:14:39.782Z,100183.69
2023-05-03T07:17:06.659Z,100179.60
2023-05-03T07:19:33.546Z,100180.06
2023-05-03T07:22:00.686Z,100180.14
2023-05-03T07:24:27.724Z,100175.13
2023-05-03T07:26:54.705Z,100172.89
2023-05-03T07:29:21.802Z,100173.10
2023-05-03T07:31:52.021Z,100167.36
2023-05-03T07:34:21.077Z,100168.92
2023-05-03T07:36:48.186Z,100168.55
2023-05-03T07:39:15.228Z,100169.13
2023-05-03T07:41:42.330Z,100167.20
2023-05-03T07:44:09.450Z,100170.16
2023-05-03T07:46:36.375Z,100169.96
2023-05-03T07:49:04.423Z,100162.09
2023-05-03T07:51:41.268Z,100163.66
2023-05-03T07:54:08.260Z,100156.43
2023-05-03T07:56:35.337Z,100161.23
2023-05-03T07:59:09.416Z,100154.98
2023-05-03T08:01:38.190Z,100160.91
2023-05-03T08:04:05.833Z,100154.63
2023-05-03T08:06:33.410Z,100156.61
2023-05-03T08:09:00.927Z,100152.42
2023-05-03T08:11:29.307Z,100157.40
2023-05-03T08:13:56.345Z,100156.72
2023-05-03T08:16:23.468Z,100153.77
2023-05-03T08:18:50.564Z,100153.92
2023-05-03T08:21:17.765Z,100151.74
2023-05-03T08:23:45.180Z,100150.71
2023-05-03T08:26:14.273Z,100154.70
2023-05-03T08:28:42.200Z,100151.11
2023-05-03T08:31:09.587Z,100153.77
2023-05-03T08:33:37.428Z,100155.51
2023-05-03T08:36:04.652Z,100148.73
2023-05-03T08:38:31.592Z,100150.61
2023-05-03T08:40:58.957Z,100149.05
2023-05-03T08:43:27.872Z,100141.04
2023-05-03T08:45:55.043Z,100148.48
2023-05-03T08:48:22.544Z,100148.93
2023-05-03T08:50:51.797Z,100154.48
2023-05-03T08:53:18.751Z,100146.77
2023-05-03T08:55:45.794Z,100139.37
2023-05-03T08:58:13.432Z,100140.88
2023-05-03T09:00:45.220Z,100148.73
2023-05-03T09:03:13.140Z,100150.54
2023-05-03T09:05:44.325Z,100145.96
2023-05-03T09:08:12.887Z,100151.96
2023-05-03T09:10:40.574Z,100152.38
2023-05-03T09:13:08.142Z,100151.05
2023-05-03T09:15:35.529Z,100147.73
2023-05-03T09:18:09.793Z,100146.32
2023-05-03T09:20:37.628Z,100150.09
2023-05-03T09:23:04.542Z,100154.96
2023-05-03T09:25:44.332Z,100146.63
2023-05-03T09:28:11.896Z,100157.70
2023-05-03T09:30:38.842Z,100146.73
2023-05-03T09:33:06.198Z,100156.01
2023-05-03T09:35:33.415Z,100145.49
2023-05-03T09:38:00.625Z,100147.74
2023-05-03T09:40:29.242Z,100149.20
2023-05-03T09:43:12.035Z,100150.11
2023-05-03T09:45:39.112Z,100150.52
2023-05-03T09:48:07.344Z,100151.75
2023-05-03T09:50:35.572Z,100148.06
2023-05-03T09:53:04.052Z,100150.15
2023-05-03T09:55:34.883Z,100148.14
2023-05-03T09:58:04.430Z,100151.20
2023-05-03T10:00:31.596Z,100147.56
2023-05-03T10:03:00.319Z,100153.58
2023-05-03T10:05:27.383Z,100141.90
2023-05-03T10:07:54.441Z,100147.27
2023-05-03T10:10:23.427Z,100147.45
2023-05-03T10:12:54.151Z,100156.29
2023-05-03T10:15:21.291Z,100150.94
2023-05-03T10:17:50.393Z,100149.35
2023-05-03T10:20:40.978Z,100140.48
2023-05-03T10:23:10.154Z,100145.38
2023-05-03T10:25:38.268Z,100140.50
2023-05-03T10:28:06.315Z,100145.98
2023-05-03T10:30:37.386Z,100141.39
2023-05-03T10:33:14.336Z,100136.94
2023-05-03T10:35:52.500Z,100137.83
2023-05-03T10:38:24.822Z,100141.36
2023-05-03T10:40:52.057Z,100140.37
2023-05-03T10:43:31.210Z,100137.08
2023-05-03T10:46:05.694Z,100141.38
2023-05-03T10:48:33.471Z,100136.70
2023-05-03T10:51:37.453Z,100137.19
2023-05-03T10:54:04.664Z,100137.89
2023-05-03T10:56:31.589Z,100140.19
2023-05-03T10:58:59.206Z,100139.65
2023-05-03T11:01:27.259Z,100129.80
2023-05-03T11:04:05.584Z,100127.05
2023-05-03T11:06:33.438Z,100131.39
2023-05-03T11:09:00.609Z,100125.73
2023-05-03T11:11:27.514Z,100130.70
2023-05-03T11:13:54.659Z,100128.71
2023-05-03T11:16:21.824Z,100126.24
2023-05-03T11:18:48.921Z,100123.52
2023-05-03T11:21:16.425Z,100118.16
2023-05-03T11:23:43.570Z,100118.24
2023-05-03T11:26:11.046Z,100120.44
2023-05-03T11:28:42.180Z,100118.29
2023-05-03T11:31:10.106Z,100116.58
2023-05-03T11:33:38.327Z,100110.29
2023-05-03T11:36:06.536Z,100118.46
2023-05-03T11:38:33.886Z,100116.86
2023-05-03T11:41:01.183Z,100114.75
2023-05-03T11:43:29.043Z,100116.65
2023-05-03T11:45:57.802Z,100116.02
2023-05-03T11:48:26.367Z,100109.80
2023-05-03T11:50:57.322Z,100104.63
2023-05-03T11:53:24.769Z,100101.34
2023-05-03T11:55:54.080Z,100098.57
2023-05-03T11:58:25.257Z,100098.44
2023-05-03T12:00:54.161Z,100088.38
2023-05-03T12:03:24.642Z,100085.80
2023-05-03T12:05:55.408Z,100081.25
2023-05-03T12:08:29.952Z,100082.35
2023-05-03T12:10:59.442Z,100080.62
2023-05-03T12:13:39.370Z,100082.08
2023-05-03T12:16:13.732Z,100081.57
2023-05-03T12:18:51.204Z,100075.75
2023-05-03T12:23:55.793Z,100067.02
2023-05-03T12:26:23.426Z,100064.48
2023-05-03T12:28:50.625Z,100062.48
2023-05-03T12:31:18.492Z,100059.66
2023-05-03T12:34:00.987Z,100055.34
2023-05-03T12:36:35.520Z,100048.98
2023-05-03T12:39:08.688Z,100046.61
2023-05-03T12:44:10.169Z,100047.27
2023-05-03T12:46:38.584Z,100047.81
2023-05-03T12:49:08.578Z,100043.80
2023-05-03T12:51:36.402Z,100041.01
2023-05-03T12:54:10.137Z,100039.86
2023-05-03T12:56:40.141Z,100039.80
2023-05-03T12:59:39.372Z,100041.92
2023-05-03T13:06:59.353Z,100028.64
2023-05-03T13:09:37.193Z,100025.41
2023-05-03T13:12:05.765Z,100027.37
2023-05-03T13:14:32.822Z,100027.19
2023-05-03T13:17:00.386Z,100027.61
2023-05-03T13:19:28.764Z,100023.20
2023-05-03T13:21:55.658Z,100024.48
2023-05-03T13:24:22.525Z,100022.66
2023-05-03T13:26:49.673Z,100020.29
2023-05-03T13:29:16.668Z,100014.98
2023-05-03T13:31:43.550Z,100018.14
2023-05-03T13:34:10.483Z,100017.73
2023-05-03T13:36:37.432Z,100017.02
2023-05-03T13:39:04.468Z,100020.16
2023-05-03T13:41:31.686Z,100018.96
2023-05-03T13:43:58.579Z,100020.08
2023-05-03T13:46:25.538Z,100018.19
2023-05-03T13:48:52.913Z,100019.12
2023-05-03T13:51:20.054Z,100015.05
2023-05-03T13:53:46.926Z,100012.95
2023-05-03T13:56:13.932Z,100017.10
2023-05-03T13:58:41.257Z,100014.08
2023-05-03T14:01:08.145Z,100018.10
2023-05-03T14:03:35.295Z,100020.77
2023-05-03T14:06:02.779Z,100020.42
2023-05-03T14:08:30.261Z,100015.94
2023-05-03T14:10:57.306Z,100016.98
2023-05-03T14:13:25.039Z,100013.10
2023-05-03T14:15:52.328Z,100017.89
2023-05-03T14:18:19.503Z,100017.70
2023-05-03T14:20:47.422Z,100016.25
2023-05-03T14:23:14.315Z,100019.73
2023-05-03T14:25:41.343Z,100019.70
2023-05-03T14:28:08.269Z,100026.90
2023-05-03T14:30:35.213Z,100023.60
2023-05-03T14:33:02.104Z,100023.56
2023-05-03T14:35:29.330Z,100022.17
2023-05-03T14:37:56.283Z,100019.55
2023-05-03T14:40:23.204Z,100019.73
2023-05-03T14:42:50.245Z,100022.61
2023-05-03T14:45:17.324Z,100021.85
2023-05-03T14:47:44.305Z,100017.56
2023-05-03T14:50:11.337Z,100019.14
2023-05-03T14:52:38.614Z,100022.23
2023-05-03T14:55:06.846Z,100024.47
2023-05-03T14:57:34.207Z,100030.58
2023-05-03T15:00:02.565Z,100029.81
2023-05-03T15:02:29.961Z,100028.48
2023-05-03T15:04:56.875Z,100027.79
2023-05-03T15:07:24.082Z,100030.38
2023-05-03T15:09:51.529Z,100032.98
2023-05-03T15:12:18.448Z,100031.19
2023-05-03T15:14:45.791Z,100027.05
2023-05-03T15:17:13.024Z,100027.89
2023-05-03T15:19:40.092Z,100026.93
2023-05-03T15:22:07.199Z,100033.05
2023-05-03T15:24:34.206Z,100033.30
2023-05-03T15:27:02.916Z,100030.33
2023-05-03T15:29:30.030Z,100031.67
2023-05-03T15:31:56.930Z,100032.34
2023-05-03T15:34:23.841Z,100029.68
2023-05-03T15:36:50.855Z,100030.86
2023-05-03T15:39:17.816Z,100027.50
2023-05-03T15:41:45.852Z,100033.88
2023-05-03T15:44:14.952Z,100035.08
2023-05-03T15:46:43.102Z,100039.21
2023-05-03T15:49:10.307Z,100035.95
2023-05-03T15:51:37.635Z,100038.98
2023-05-03T15:54:04.624Z,100041.13
2023-05-03T15:56:31.605Z,100042.41
2023-05-03T15:58:58.466Z,100040.77
2023-05-03T16:01:25.566Z,100044.76
2023-05-03T16:03:52.423Z,100042.23
2023-05-03T16:06:19.551Z,100049.11
2023-05-03T16:08:46.718Z,100051.33
2023-05-03T16:11:13.735Z,100052.47
2023-05-03T16:13:40.706Z,100052.16
2023-05-03T16:16:07.824Z,100053.45
2023-05-03T16:18:34.936Z,100051.05
2023-05-03T16:21:02.837Z,100053.61
2023-05-03T16:23:29.850Z,100055.25
2023-05-03T16:25:56.867Z,100056.56
2023-05-03T16:28:24.026Z,100061.02
2023-05-03T16:30:51.910Z,100062.70
2023-05-03T16:33:18.798Z,100059.75
2023-05-03T16:35:45.922Z,100061.59
2023-05-03T16:38:12.870Z,100065.73
2023-05-03T16:40:40.617Z,100067.17
2023-05-03T16:43:07.962Z,100071.23
2023-05-03T16:45:34.977Z,100072.11
2023-05-03T16:48:04.797Z,100077.39
2023-05-03T16:50:33.342Z,100077.26
2023-05-03T16:53:00.213Z,100077.58
2023-05-03T16:55:27.131Z,100078.75
2023-05-03T16:57:54.188Z,100074.81
2023-05-03T17:00:22.011Z,100083.98
2023-05-03T17:02:49.204Z,100084.56
2023-05-03T17:05:16.521Z,100080.71
2023-05-03T17:07:43.534Z,100081.80
2023-05-03T17:10:10.615Z,100082.88
2023-05-03T17:12:37.694Z,100083.27
2023-05-03T17:15:04.964Z,100083.67
2023-05-03T17:17:32.826Z,100083.24
2023-05-03T17:20:00.063Z,100089.90
2023-05-03T17:22:28.254Z,100086.55
2023-05-03T17:24:58.036Z,100085.70
2023-05-03T17:27:25.409Z,100081.69
2023-05-03T17:29:52.397Z,100082.19
2023-05-03T17:32:19.300Z,100087.73
2023-05-03T17:34:46.287Z,100090.62
2023-05-03T17:37:13.201Z,100092.44
2023-05-03T17:39:40.147Z,100092.73
2023-05-03T17:42:08.223Z,100092.88
2023-05-03T17:44:35.079Z,100093.05
2023-05-03T17:47:02.451Z,100094.41
2023-05-03T17:49:33.136Z,100095.84
2023-05-03T17:52:00.253Z,100094.66
2023-05-03T17:54:30.443Z,100099.41
2023-05-03T17:56:57.416Z,100103.66
2023-05-03T17:59:24.289Z,100106.04
2023-05-03T18:01:51.231Z,100111.33
2023-05-03T18:04:18.157Z,100118.79
2023-05-03T18:06:45.164Z,100122.79
2023-05-03T18:09:13.332Z,100124.84
2023-05-03T18:11:41.465Z,100129.16
2023-05-03T18:14:08.481Z,100125.61
2023-05-03T18:16:36.112Z,100128.71
2023-05-03T18:19:03.910Z,100131.02
2023-05-03T18:21:30.915Z,100127.17
2023-05-03T18:23:58.102Z,100140.91
2023-05-03T18:26:25.557Z,100146.63
2023-05-03T18:28:53.618Z,100146.82
2023-05-03T18:31:21.606Z,100146.63
2023-05-03T18:33:48.999Z,100146.92
2023-05-03T18:36:16.957Z,100148.66
2023-05-03T18:38:44.403Z,100152.34
2023-05-03T18:41:16.110Z,100153.23
2023-05-03T18:43:43.713Z,100156.03
2023-05-03T18:46:10.961Z,100160.02
2023-05-03T18:48:37.780Z,100165.40
2023-05-03T18:51:04.953Z,100168.16
2023-05-03T18:53:34.391Z,100170.05
2023-05-03T18:56:07.108Z,100177.50
2023-05-03T18:58:34.010Z,100183.92
2023-05-03T19:01:01.339Z,100184.39
2023-05-03T19:03:29.693Z,100187.77
2023-05-03T19:05:59.771Z,100191.65
2023-05-03T19:08:26.763Z,100195.21
2023-05-03T19:10:53.751Z,100190.44
2023-05-03T19:13:20.781Z,100192.45
2023-05-03T19:15:48.065Z,100195.54
2023-05-03T19:18:16.636Z,100192.52
2023-05-03T19:20:43.997Z,100197.45
2023-05-03T19:23:11.080Z,100197.52
2023-05-03T19:25:38.171Z,100199.84
2023-05-03T19:28:06.879Z,100200.92
2023-05-03T19:30:34.214Z,100203.60
2023-05-03T19:33:01.424Z,100208.84
2023-05-03T19:35:28.420Z,100207.66
2023-05-03T19:37:56.116Z,100212.55
2023-05-03T19:40:24.860Z,100211.70
2023-05-03T19:42:52.651Z,100217.83
2023-05-03T19:45:19.876Z,100220.11
2023-05-03T19:47:47.667Z,100217.54
2023-05-03T19:50:14.723Z,100221.89
2023-05-03T19:52:42.336Z,100216.37
2023-05-03T19:55:09.513Z,100223.33
2023-05-03T19:57:36.633Z,100221.80
2023-05-03T20:00:05.589Z,100231.71
2023-05-03T20:02:34.024Z,100229.30
2023-05-03T20:05:01.154Z,100235.56
2023-05-03T20:07:28.073Z,100239.20
2023-05-03T20:09:54.973Z,100238.20
2023-05-03T20:12:21.807Z,100239.42
2023-05-03T20:14:49.186Z,100235.80
2023-05-03T20:17:16.396Z,100243.43
2023-05-03T20:19:44.007Z,100245.36
2023-05-03T20:22:11.493Z,100247.27
2023-05-03T20:24:38.341Z,100245.55
2023-05-03T20:27:05.297Z,100253.88
2023-05-03T20:29:32.357Z,100251.46
2023-05-03T20:31:59.461Z,100256.30
2023-05-03T20:34:27.206Z,100260.96
2023-05-03T20:36:54.643Z,100257.66
2023-05-03T20:39:21.532Z,100253.52
2023-05-03T20:41:48.455Z,100256.45
2023-05-03T20:44:15.692Z,100258.71
2023-05-03T20:46:42.768Z,100260.63
2023-05-03T20:49:10.340Z,100262.01
2023-05-03T20:51:37.495Z,100262.02
2023-05-03T20:54:04.510Z,100258.55
2023-05-03T20:56:33.501Z,100257.34
2023-05-03T20:59:00.875Z,100258.38
2023-05-03T21:01:27.820Z,100256.30
2023-05-03T21:03:56.861Z,100260.63
2023-05-03T21:06:23.875Z,100258.55
2023-05-03T21:08:52.819Z,100260.45
2023-05-03T21:11:19.826Z,100263.38
2023-05-03T21:13:46.782Z,100265.98
2023-05-03T21:16:13.709Z,100269.77
2023-05-03T21:18:40.806Z,100273.38
2023-05-03T21:21:07.748Z,100272.52
2023-05-03T21:23:34.760Z,100277.86
2023-05-03T21:26:01.705Z,100278.55
2023-05-03T21:28:30.580Z,100277.33
2023-05-03T21:30:57.538Z,100274.89
2023-05-03T21:33:24.636Z,100279.89
2023-05-03T21:35:51.647Z,100278.84
2023-05-03T21:38:18.702Z,100283.33
2023-05-03T21:40:47.289Z,100286.44
2023-05-03T21:43:14.408Z,100286.96
2023-05-03T21:45:43.404Z,100288.50
2023-05-03T21:48:10.460Z,100287.46
2023-05-03T21:50:40.559Z,100286.75
2023-05-03T21:53:07.398Z,100286.06
2023-05-03T21:55:34.457Z,100287.60
2023-05-03T21:58:01.601Z,100288.29
2023-05-03T22:00:29.533Z,100286.04
2023-05-03T22:02:56.686Z,100284.48
2023-05-03T22:05:24.431Z,100280.64
2023-05-03T22:07:51.451Z,100275.45
2023-05-03T22:10:18.890Z,100275.26
2023-05-03T22:12:46.352Z,100280.42
2023-05-03T22:15:13.454Z,100279.54
2023-05-03T22:17:40.487Z,100277.10
2023-05-03T22:20:08.499Z,100273.46
2023-05-03T22:22:35.663Z,100271.20
2023-05-03T22:25:02.633Z,100272.56
2023-05-03T22:27:29.499Z,100273.92
2023-05-03T22:29:56.939Z,100276.69
2023-05-03T22:32:23.931Z,100281.66
2023-05-03T22:34:50.910Z,100279.91
2023-05-03T22:37:17.905Z,100280.77
2023-05-03T22:39:44.798Z,100282.14
2023-05-03T22:42:11.743Z,100277.45
2023-05-03T22:44:38.652Z,100279.84
2023-05-03T22:47:05.656Z,100277.77
2023-05-03T22:49:32.621Z,100279.11
2023-05-03T22:51:59.579Z,100279.98
2023-05-03T22:54:27.107Z,100275.98
2023-05-03T22:56:54.793Z,100278.02
2023-05-03T22:59:21.683Z,100279.40
2023-05-03T23:01:49.770Z,100280.06
2023-05-03T23:04:16.926Z,100281.77
2023-05-03T23:06:44.355Z,100277.27
2023-05-03T23:09:11.956Z,100271.39
2023-05-03T23:11:38.913Z,100267.23
2023-05-03T23:14:06.302Z,100264.80
2023-05-03T23:16:33.526Z,100261.66
2023-05-03T23:19:00.448Z,100257.50
2023-05-03T23:21:27.566Z,100255.21
2023-05-03T23:23:54.682Z,100257.27
2023-05-03T23:26:21.912Z,100257.08
2023-05-03T23:28:49.439Z,100257.40
2023-05-03T23:31:17.159Z,100255.48
2023-05-03T23:33:44.517Z,100254.09
2023-05-03T23:36:11.541Z,100251.48
2023-05-03T23:38:38.534Z,100251.28
2023-05-03T23:41:05.495Z,100254.18
2023-05-03T23:43:32.896Z,100257.96
2023-05-03T23:46:00.001Z,100252.63
2023-05-03T23:48:26.962Z,100246.08
2023-05-03T23:50:54.098Z,100246.05
2023-05-03T23:53:21.062Z,100245.84
2023-05-03T23:55:48.077Z,100246.50
2023-05-03T23:58:15.133Z,100243.23
